sensor_id;sensor_type;location;lat;lon;timestamp;pressure;altitude;pressure_sealevel;temperature
64470;BMP280;50854;48.538;14.352;2022-09-23T00:00:06;93929.25;;;2.13
64470;BMP280;50854;48.538;14.352;2022-09-23T00:01:08;93922.19;;;2.10
64470;BMP280;50854;48.538;14.352;2022-09-23T00:02:08;93919.34;;;2.14
64470;BMP280;50854;48.538;14.352;2022-09-23T00:03:09;93919.78;;;2.12
64470;BMP280;50854;48.538;14.352;2022-09-23T00:04:10;93918.59;;;2.13
64470;BMP280;50854;48.538;14.352;2022-09-23T00:05:10;93918.94;;;2.06
64470;BMP280;50854;48.538;14.352;2022-09-23T00:06:17;93926.66;;;2.04
64470;BMP280;50854;48.538;14.352;2022-09-23T00:07:17;93925.16;;;2.03
64470;BMP280;50854;48.538;14.352;2022-09-23T00:08:17;93928.44;;;1.98
64470;BMP280;50854;48.538;14.352;2022-09-23T00:09:18;93919.38;;;2.05
64470;BMP280;50854;48.538;14.352;2022-09-23T00:10:18;93920.28;;;2.02
64470;BMP280;50854;48.538;14.352;2022-09-23T00:11:22;93920.75;;;2.00
64470;BMP280;50854;48.538;14.352;2022-09-23T00:12:22;93923.25;;;2.04
64470;BMP280;50854;48.538;14.352;2022-09-23T00:13:23;93923.53;;;2.06
64470;BMP280;50854;48.538;14.352;2022-09-23T00:14:24;93921.94;;;1.99
64470;BMP280;50854;48.538;14.352;2022-09-23T00:15:24;93926.34;;;2.02
64470;BMP280;50854;48.538;14.352;2022-09-23T00:16:26;93927.81;;;2.03
64470;BMP280;50854;48.538;14.352;2022-09-23T00:17:27;93917.22;;;1.94
64470;BMP280;50854;48.538;14.352;2022-09-23T00:18:27;93922.53;;;1.94
64470;BMP280;50854;48.538;14.352;2022-09-23T00:19:27;93916.91;;;1.92
64470;BMP280;50854;48.538;14.352;2022-09-23T00:20:28;93927.47;;;1.87
64470;BMP280;50854;48.538;14.352;2022-09-23T00:21:29;93921.22;;;1.90
64470;BMP280;50854;48.538;14.352;2022-09-23T00:22:29;93914.25;;;1.92
64470;BMP280;50854;48.538;14.352;2022-09-23T00:23:29;93916.34;;;1.88
64470;BMP280;50854;48.538;14.352;2022-09-23T00:24:30;93909.81;;;1.89
64470;BMP280;50854;48.538;14.352;2022-09-23T00:25:31;93910.75;;;1.86
64470;BMP280;50854;48.538;14.352;2022-09-23T00:26:31;93909.81;;;1.89
64470;BMP280;50854;48.538;14.352;2022-09-23T00:27:31;93906.34;;;1.83
64470;BMP280;50854;48.538;14.352;2022-09-23T00:28:35;93907.25;;;1.71
64470;BMP280;50854;48.538;14.352;2022-09-23T00:29:35;93912.13;;;1.72
64470;BMP280;50854;48.538;14.352;2022-09-23T00:30:36;93906.63;;;1.76
64470;BMP280;50854;48.538;14.352;2022-09-23T00:31:39;93910.97;;;1.64
64470;BMP280;50854;48.538;14.352;2022-09-23T00:32:39;93907.25;;;1.62
64470;BMP280;50854;48.538;14.352;2022-09-23T00:33:39;93903.25;;;1.66
64470;BMP280;50854;48.538;14.352;2022-09-23T00:34:42;93904.56;;;1.71
64470;BMP280;50854;48.538;14.352;2022-09-23T00:35:42;93893.91;;;1.71
64470;BMP280;50854;48.538;14.352;2022-09-23T00:36:42;93895.56;;;1.68
64470;BMP280;50854;48.538;14.352;2022-09-23T00:37:43;93896.59;;;1.71
64470;BMP280;50854;48.538;14.352;2022-09-23T00:38:43;93895.72;;;1.65
64470;BMP280;50854;48.538;14.352;2022-09-23T00:39:44;93895.13;;;1.61
64470;BMP280;50854;48.538;14.352;2022-09-23T00:40:47;93892.06;;;1.53
64470;BMP280;50854;48.538;14.352;2022-09-23T00:41:48;93894.28;;;1.45
64470;BMP280;50854;48.538;14.352;2022-09-23T00:42:48;93891.88;;;1.56
64470;BMP280;50854;48.538;14.352;2022-09-23T00:43:52;93890.84;;;1.63
64470;BMP280;50854;48.538;14.352;2022-09-23T00:44:53;93885.22;;;1.61
64470;BMP280;50854;48.538;14.352;2022-09-23T00:45:54;93888.63;;;1.62
64470;BMP280;50854;48.538;14.352;2022-09-23T00:46:54;93885.22;;;1.61
64470;BMP280;50854;48.538;14.352;2022-09-23T00:47:56;93887.72;;;1.65
64470;BMP280;50854;48.538;14.352;2022-09-23T00:49:07;93889.50;;;1.68
64470;BMP280;50854;48.538;14.352;2022-09-23T00:51:24;93890.25;;;1.68
64470;BMP280;50854;48.538;14.352;2022-09-23T00:52:27;93883.28;;;1.71
64470;BMP280;50854;48.538;14.352;2022-09-23T00:53:28;93896.91;;;1.73
64470;BMP280;50854;48.538;14.352;2022-09-23T00:54:28;93887.72;;;1.74
64470;BMP280;50854;48.538;14.352;2022-09-23T00:55:30;93895.41;;;1.72
64470;BMP280;50854;48.538;14.352;2022-09-23T00:56:32;93887.59;;;1.59
64470;BMP280;50854;48.538;14.352;2022-09-23T00:57:33;93891.59;;;1.54
64470;BMP280;50854;48.538;14.352;2022-09-23T00:58:36;93898.13;;;1.53
64470;BMP280;50854;48.538;14.352;2022-09-23T00:59:38;93892.53;;;1.51
64470;BMP280;50854;48.538;14.352;2022-09-23T01:00:39;93891.31;;;1.52
64470;BMP280;50854;48.538;14.352;2022-09-23T01:01:41;93884.81;;;1.53
64470;BMP280;50854;48.538;14.352;2022-09-23T01:02:41;93879.75;;;1.55
64470;BMP280;50854;48.538;14.352;2022-09-23T01:03:42;93878.56;;;1.56
64470;BMP280;50854;48.538;14.352;2022-09-23T01:04:45;93887.00;;;1.55
64470;BMP280;50854;48.538;14.352;2022-09-23T01:05:46;93880.69;;;1.52
64470;BMP280;50854;48.538;14.352;2022-09-23T01:06:46;93888.94;;;1.54
64470;BMP280;50854;48.538;14.352;2022-09-23T01:07:47;93882.28;;;1.50
64470;BMP280;50854;48.538;14.352;2022-09-23T01:08:48;93881.28;;;1.47
64470;BMP280;50854;48.538;14.352;2022-09-23T01:09:49;93873.69;;;1.55
64470;BMP280;50854;48.538;14.352;2022-09-23T01:10:58;93880.81;;;1.49
64470;BMP280;50854;48.538;14.352;2022-09-23T01:12:12;93872.09;;;1.48
64470;BMP280;50854;48.538;14.352;2022-09-23T01:13:29;93871.97;;;1.52
64470;BMP280;50854;48.538;14.352;2022-09-23T01:15:52;93868.84;;;1.53
64470;BMP280;50854;48.538;14.352;2022-09-23T01:21:33;93873.09;;;1.60
64470;BMP280;50854;48.538;14.352;2022-09-23T01:22:49;93868.06;;;1.62
64470;BMP280;50854;48.538;14.352;2022-09-23T01:31:58;93861.72;;;1.59
64470;BMP280;50854;48.538;14.352;2022-09-23T01:33:05;93850.19;;;1.53
64470;BMP280;50854;48.538;14.352;2022-09-23T01:34:26;93863.22;;;1.51
64470;BMP280;50854;48.538;14.352;2022-09-23T01:36:48;93853.59;;;1.54
64470;BMP280;50854;48.538;14.352;2022-09-23T01:39:02;93851.34;;;1.62
64470;BMP280;50854;48.538;14.352;2022-09-23T01:40:05;93845.00;;;1.59
64470;BMP280;50854;48.538;14.352;2022-09-23T01:41:27;93848.53;;;1.65
64470;BMP280;50854;48.538;14.352;2022-09-23T01:42:37;93844.84;;;1.63
64470;BMP280;50854;48.538;14.352;2022-09-23T01:50:56;93846.50;;;1.51
64470;BMP280;50854;48.538;14.352;2022-09-23T01:52:03;93840.16;;;1.48
64470;BMP280;50854;48.538;14.352;2022-09-23T01:55:16;93849.63;;;1.40
64470;BMP280;50854;48.538;14.352;2022-09-23T01:57:26;93846.59;;;1.33
64470;BMP280;50854;48.538;14.352;2022-09-23T01:58:30;93848.50;;;1.32
64470;BMP280;50854;48.538;14.352;2022-09-23T01:59:34;93845.84;;;1.32
64470;BMP280;50854;48.538;14.352;2022-09-23T02:00:37;93845.84;;;1.32
64470;BMP280;50854;48.538;14.352;2022-09-23T02:01:44;93848.06;;;1.34
64470;BMP280;50854;48.538;14.352;2022-09-23T02:05:27;93843.22;;;1.14
64470;BMP280;50854;48.538;14.352;2022-09-23T02:06:30;93842.94;;;1.21
64470;BMP280;50854;48.538;14.352;2022-09-23T02:07:34;93839.06;;;1.22
64470;BMP280;50854;48.538;14.352;2022-09-23T02:08:37;93835.97;;;1.23
64470;BMP280;50854;48.538;14.352;2022-09-23T02:09:41;93842.00;;;1.24
64470;BMP280;50854;48.538;14.352;2022-09-23T02:11:46;93834.22;;;1.20
64470;BMP280;50854;48.538;14.352;2022-09-23T02:12:47;93836.00;;;1.05
64470;BMP280;50854;48.538;14.352;2022-09-23T02:15:55;93834.03;;;1.15
64470;BMP280;50854;48.538;14.352;2022-09-23T02:16:58;93840.88;;;1.16
64470;BMP280;50854;48.538;14.352;2022-09-23T02:18:02;93833.63;;;1.16
64470;BMP280;50854;48.538;14.352;2022-09-23T02:19:06;93837.75;;;1.08
64470;BMP280;50854;48.538;14.352;2022-09-23T02:20:07;93836.47;;;0.94
64470;BMP280;50854;48.538;14.352;2022-09-23T02:21:09;93837.50;;;0.97
64470;BMP280;50854;48.538;14.352;2022-09-23T02:22:11;93834.09;;;1.05
64470;BMP280;50854;48.538;14.352;2022-09-23T02:23:16;93837.63;;;1.02
64470;BMP280;50854;48.538;14.352;2022-09-23T02:24:19;93834.50;;;1.04
64470;BMP280;50854;48.538;14.352;2022-09-23T02:25:20;93830.22;;;1.07
64470;BMP280;50854;48.538;14.352;2022-09-23T02:26:29;93831.97;;;1.10
64470;BMP280;50854;48.538;14.352;2022-09-23T02:27:36;93835.84;;;1.09
64470;BMP280;50854;48.538;14.352;2022-09-23T02:29:48;93833.97;;;0.91
64470;BMP280;50854;48.538;14.352;2022-09-23T02:30:56;93828.03;;;0.96
64470;BMP280;50854;48.538;14.352;2022-09-23T02:32:06;93834.81;;;0.97
64470;BMP280;50854;48.538;14.352;2022-09-23T02:33:22;93832.63;;;0.95
64470;BMP280;50854;48.538;14.352;2022-09-23T02:39:11;93828.59;;;1.09
64470;BMP280;50854;48.538;14.352;2022-09-23T02:40:15;93832.28;;;1.12
64470;BMP280;50854;48.538;14.352;2022-09-23T02:42:25;93834.63;;;1.19
64470;BMP280;50854;48.538;14.352;2022-09-23T02:44:48;93826.03;;;1.24
64470;BMP280;50854;48.538;14.352;2022-09-23T02:45:48;93823.69;;;1.26
64470;BMP280;50854;48.538;14.352;2022-09-23T02:46:49;93829.75;;;1.26
64470;BMP280;50854;48.538;14.352;2022-09-23T02:47:52;93825.31;;;1.23
64470;BMP280;50854;48.538;14.352;2022-09-23T02:50:03;93825.78;;;1.22
64470;BMP280;50854;48.538;14.352;2022-09-23T02:51:03;93820.72;;;1.24
64470;BMP280;50854;48.538;14.352;2022-09-23T02:52:04;93822.06;;;1.19
64470;BMP280;50854;48.538;14.352;2022-09-23T02:53:06;93817.19;;;1.18
64470;BMP280;50854;48.538;14.352;2022-09-23T02:54:08;93821.63;;;1.21
64470;BMP280;50854;48.538;14.352;2022-09-23T02:55:09;93810.25;;;1.20
64470;BMP280;50854;48.538;14.352;2022-09-23T02:56:14;93816.59;;;1.23
64470;BMP280;50854;48.538;14.352;2022-09-23T02:57:15;93809.81;;;1.13
64470;BMP280;50854;48.538;14.352;2022-09-23T02:58:15;93807.75;;;1.17
64470;BMP280;50854;48.538;14.352;2022-09-23T02:59:16;93808.03;;;1.19
64470;BMP280;50854;48.538;14.352;2022-09-23T03:00:18;93802.13;;;1.15
64470;BMP280;50854;48.538;14.352;2022-09-23T03:02:47;93809.69;;;1.07
64470;BMP280;50854;48.538;14.352;2022-09-23T03:08:50;93804.81;;;1.05
64470;BMP280;50854;48.538;14.352;2022-09-23T03:11:08;93806.59;;;0.99
64470;BMP280;50854;48.538;14.352;2022-09-23T03:12:14;93804.84;;;0.78
64470;BMP280;50854;48.538;14.352;2022-09-23T03:13:16;93805.59;;;0.78
64470;BMP280;50854;48.538;14.352;2022-09-23T03:14:28;93807.50;;;0.78
64470;BMP280;50854;48.538;14.352;2022-09-23T03:20:23;93803.41;;;0.49
64470;BMP280;50854;48.538;14.352;2022-09-23T03:21:32;93804.72;;;0.54
64470;BMP280;50854;48.538;14.352;2022-09-23T03:22:34;93797.63;;;0.51
64470;BMP280;50854;48.538;14.352;2022-09-23T03:23:36;93795.13;;;0.57
64470;BMP280;50854;48.538;14.352;2022-09-23T03:24:38;93797.19;;;0.62
64470;BMP280;50854;48.538;14.352;2022-09-23T03:25:39;93801.63;;;0.65
64470;BMP280;50854;48.538;14.352;2022-09-23T03:26:43;93794.66;;;0.67
64470;BMP280;50854;48.538;14.352;2022-09-23T03:27:44;93799.25;;;0.76
64470;BMP280;50854;48.538;14.352;2022-09-23T03:28:44;93797.19;;;0.80
64470;BMP280;50854;48.538;14.352;2022-09-23T03:29:49;93798.94;;;0.83
64470;BMP280;50854;48.538;14.352;2022-09-23T03:30:50;93790.25;;;0.73
64470;BMP280;50854;48.538;14.352;2022-09-23T03:31:51;93793.34;;;0.72
64470;BMP280;50854;48.538;14.352;2022-09-23T03:32:52;93795.72;;;0.70
64470;BMP280;50854;48.538;14.352;2022-09-23T03:33:54;93794.38;;;0.74
64470;BMP280;50854;48.538;14.352;2022-09-23T03:34:56;93793.66;;;0.65
64470;BMP280;50854;48.538;14.352;2022-09-23T03:36:04;93789.06;;;0.65
64470;BMP280;50854;48.538;14.352;2022-09-23T03:37:31;93788.47;;;0.52
64470;BMP280;50854;48.538;14.352;2022-09-23T03:38:35;93791.00;;;0.46
64470;BMP280;50854;48.538;14.352;2022-09-23T03:40:22;93785.09;;;0.42
64470;BMP280;50854;48.538;14.352;2022-09-23T03:40:57;93779.75;;;0.51
64470;BMP280;50854;48.538;14.352;2022-09-23T03:42:09;93778.88;;;0.45
64470;BMP280;50854;48.538;14.352;2022-09-23T03:43:12;93781.13;;;0.38
64470;BMP280;50854;48.538;14.352;2022-09-23T03:44:12;93781.59;;;0.27
64470;BMP280;50854;48.538;14.352;2022-09-23T03:45:20;93781.59;;;0.27
64470;BMP280;50854;48.538;14.352;2022-09-23T03:46:20;93785.41;;;0.26
64470;BMP280;50854;48.538;14.352;2022-09-23T03:47:24;93776.84;;;0.31
64470;BMP280;50854;48.538;14.352;2022-09-23T03:48:25;93782.19;;;0.22
64470;BMP280;50854;48.538;14.352;2022-09-23T03:49:26;93776.13;;;0.21
64470;BMP280;50854;48.538;14.352;2022-09-23T03:50:27;93781.00;;;0.23
64470;BMP280;50854;48.538;14.352;2022-09-23T03:51:27;93779.06;;;0.23
64470;BMP280;50854;48.538;14.352;2022-09-23T03:52:27;93788.06;;;0.26
64470;BMP280;50854;48.538;14.352;2022-09-23T03:53:28;93786.00;;;0.30
64470;BMP280;50854;48.538;14.352;2022-09-23T03:54:28;93787.03;;;0.33
64470;BMP280;50854;48.538;14.352;2022-09-23T03:55:29;93780.38;;;0.37
64470;BMP280;50854;48.538;14.352;2022-09-23T03:56:31;93791.44;;;0.36
64470;BMP280;50854;48.538;14.352;2022-09-23T03:57:31;93788.34;;;0.37
64470;BMP280;50854;48.538;14.352;2022-09-23T03:58:31;93783.06;;;0.28
64470;BMP280;50854;48.538;14.352;2022-09-23T03:59:32;93781.88;;;0.11
64470;BMP280;50854;48.538;14.352;2022-09-23T04:00:32;93788.50;;;0.15
64470;BMP280;50854;48.538;14.352;2022-09-23T04:01:35;93784.84;;;0.22
64470;BMP280;50854;48.538;14.352;2022-09-23T04:02:35;93776.84;;;0.31
64470;BMP280;50854;48.538;14.352;2022-09-23T04:03:35;93779.34;;;0.35
64470;BMP280;50854;48.538;14.352;2022-09-23T04:04:36;93774.63;;;0.39
64470;BMP280;50854;48.538;14.352;2022-09-23T04:05:36;93780.94;;;0.41
64470;BMP280;50854;48.538;14.352;2022-09-23T04:06:37;93773.56;;;0.45
64470;BMP280;50854;48.538;14.352;2022-09-23T04:07:37;93777.56;;;0.50
64470;BMP280;50854;48.538;14.352;2022-09-23T04:08:37;93777.56;;;0.50
64470;BMP280;50854;48.538;14.352;2022-09-23T04:09:38;93783.16;;;0.52
64470;BMP280;50854;48.538;14.352;2022-09-23T04:10:39;93771.50;;;0.49
64470;BMP280;50854;48.538;14.352;2022-09-23T04:11:40;93776.09;;;0.49
64470;BMP280;50854;48.538;14.352;2022-09-23T04:12:40;93777.41;;;0.44
64470;BMP280;50854;48.538;14.352;2022-09-23T04:13:40;93774.75;;;0.44
64470;BMP280;50854;48.538;14.352;2022-09-23T04:14:41;93776.97;;;0.46
64470;BMP280;50854;48.538;14.352;2022-09-23T04:15:41;93780.50;;;0.52
64470;BMP280;50854;48.538;14.352;2022-09-23T04:16:41;93775.63;;;0.50
64470;BMP280;50854;48.538;14.352;2022-09-23T04:17:42;93777.13;;;0.42
64470;BMP280;50854;48.538;14.352;2022-09-23T04:18:42;93773.91;;;0.29
64470;BMP280;50854;48.538;14.352;2022-09-23T04:19:42;93778.47;;;0.38
64470;BMP280;50854;48.538;14.352;2022-09-23T04:20:44;93778.28;;;0.41
64470;BMP280;50854;48.538;14.352;2022-09-23T04:21:44;93775.50;;;0.36
64470;BMP280;50854;48.538;14.352;2022-09-23T04:22:44;93776.56;;;0.20
64470;BMP280;50854;48.538;14.352;2022-09-23T04:23:44;93775.69;;;0.23
64470;BMP280;50854;48.538;14.352;2022-09-23T04:24:45;93779.50;;;0.31
64470;BMP280;50854;48.538;14.352;2022-09-23T04:25:46;93780.06;;;0.35
64470;BMP280;50854;48.538;14.352;2022-09-23T04:26:48;93775.34;;;0.39
64470;BMP280;50854;48.538;14.352;2022-09-23T04:27:49;93772.09;;;0.35
64470;BMP280;50854;48.538;14.352;2022-09-23T04:28:49;93776.53;;;0.38
64470;BMP280;50854;48.538;14.352;2022-09-23T04:29:49;93771.97;;;0.39
64470;BMP280;50854;48.538;14.352;2022-09-23T04:30:50;93774.63;;;0.39
64470;BMP280;50854;48.538;14.352;2022-09-23T04:31:50;93770.19;;;0.45
64470;BMP280;50854;48.538;14.352;2022-09-23T04:32:51;93770.31;;;0.50
64470;BMP280;50854;48.538;14.352;2022-09-23T04:33:51;93772.09;;;0.53
64470;BMP280;50854;48.538;14.352;2022-09-23T04:34:52;93770.78;;;0.58
64470;BMP280;50854;48.538;14.352;2022-09-23T04:35:52;93768.84;;;0.59
64470;BMP280;50854;48.538;14.352;2022-09-23T04:36:52;93764.53;;;0.61
64470;BMP280;50854;48.538;14.352;2022-09-23T04:37:52;93765.47;;;0.49
64470;BMP280;50854;48.538;14.352;2022-09-23T04:38:53;93762.34;;;0.50
64470;BMP280;50854;48.538;14.352;2022-09-23T04:39:53;93765.91;;;0.47
64470;BMP280;50854;48.538;14.352;2022-09-23T04:40:55;93769.72;;;0.46
64470;BMP280;50854;48.538;14.352;2022-09-23T04:41:55;93767.06;;;0.46
64470;BMP280;50854;48.538;14.352;2022-09-23T04:42:56;93767.06;;;0.46
64470;BMP280;50854;48.538;14.352;2022-09-23T04:43:56;93761.59;;;0.50
64470;BMP280;50854;48.538;14.352;2022-09-23T04:44:56;93770.31;;;0.50
64470;BMP280;50854;48.538;14.352;2022-09-23T04:46:00;93768.25;;;0.55
64470;BMP280;50854;48.538;14.352;2022-09-23T04:47:01;93764.41;;;0.56
64470;BMP280;50854;48.538;14.352;2022-09-23T04:48:03;93768.25;;;0.55
64470;BMP280;50854;48.538;14.352;2022-09-23T04:49:04;93763.53;;;0.49
64470;BMP280;50854;48.538;14.352;2022-09-23T04:50:04;93771.97;;;0.48
64470;BMP280;50854;48.538;14.352;2022-09-23T04:51:06;93778.28;;;0.50
64470;BMP280;50854;48.538;14.352;2022-09-23T04:52:07;93770.91;;;0.45
64470;BMP280;50854;48.538;14.352;2022-09-23T04:53:07;93773.03;;;0.32
64470;BMP280;50854;48.538;14.352;2022-09-23T04:54:08;93768.00;;;0.25
64470;BMP280;50854;48.538;14.352;2022-09-23T04:55:08;93772.41;;;0.19
64470;BMP280;50854;48.538;14.352;2022-09-23T04:57:12;93771.41;;;0.16
64470;BMP280;50854;48.538;14.352;2022-09-23T04:58:13;93771.53;;;0.13
64470;BMP280;50854;48.538;14.352;2022-09-23T04:59:13;93773.31;;;0.16
64470;BMP280;50854;48.538;14.352;2022-09-23T05:00:14;93774.47;;;0.15
64470;BMP280;50854;48.538;14.352;2022-09-23T05:02:17;93770.97;;;0.27
64470;BMP280;50854;48.538;14.352;2022-09-23T05:03:18;93772.28;;;0.32
64470;BMP280;50854;48.538;14.352;2022-09-23T05:04:18;93769.63;;;0.32
64470;BMP280;50854;48.538;14.352;2022-09-23T05:05:18;93778.75;;;0.40
64470;BMP280;50854;48.538;14.352;2022-09-23T05:06:20;93774.91;;;0.41
64470;BMP280;50854;48.538;14.352;2022-09-23T05:07:20;93776.22;;;0.45
64470;BMP280;50854;48.538;14.352;2022-09-23T05:08:21;93779.47;;;0.49
64470;BMP280;50854;48.538;14.352;2022-09-23T05:09:21;93774.44;;;0.51
64470;BMP280;50854;48.538;14.352;2022-09-23T05:10:21;93772.97;;;0.60
64470;BMP280;50854;48.538;14.352;2022-09-23T05:11:22;93771.78;;;0.61
64470;BMP280;50854;48.538;14.352;2022-09-23T05:12:22;93775.91;;;0.62
64470;BMP280;50854;48.538;14.352;2022-09-23T05:13:22;93778.88;;;0.64
64470;BMP280;50854;48.538;14.352;2022-09-23T05:14:23;93783.75;;;0.65
64470;BMP280;50854;48.538;14.352;2022-09-23T05:15:23;93775.63;;;0.60
64470;BMP280;50854;48.538;14.352;2022-09-23T05:16:24;93780.06;;;0.63
64470;BMP280;50854;48.538;14.352;2022-09-23T05:17:24;93780.63;;;0.67
64470;BMP280;50854;48.538;14.352;2022-09-23T05:18:24;93776.06;;;0.67
64470;BMP280;50854;48.538;14.352;2022-09-23T05:19:25;93781.22;;;0.71
64470;BMP280;50854;48.538;14.352;2022-09-23T05:20:25;93783.28;;;0.76
64470;BMP280;50854;48.538;14.352;2022-09-23T05:21:25;93784.47;;;0.84
64470;BMP280;50854;48.538;14.352;2022-09-23T05:22:28;93781.63;;;0.97
64470;BMP280;50854;48.538;14.352;2022-09-23T05:23:29;93782.94;;;1.11
64470;BMP280;50854;48.538;14.352;2022-09-23T05:24:29;93787.22;;;1.08
64470;BMP280;50854;48.538;14.352;2022-09-23T05:25:29;93785.59;;;1.11
64470;BMP280;50854;48.538;14.352;2022-09-23T05:26:30;93789.88;;;1.08
64470;BMP280;50854;48.538;14.352;2022-09-23T05:27:31;93788.38;;;1.16
64470;BMP280;50854;48.538;14.352;2022-09-23T05:28:31;93791.44;;;1.24
64470;BMP280;50854;48.538;14.352;2022-09-23T05:29:32;93792.25;;;1.39
64470;BMP280;50854;48.538;14.352;2022-09-23T05:30:32;93786.66;;;1.37
64470;BMP280;50854;48.538;14.352;2022-09-23T05:31:33;93792.50;;;1.50
64470;BMP280;50854;48.538;14.352;2022-09-23T05:32:33;93796.44;;;1.64
64470;BMP280;50854;48.538;14.352;2022-09-23T05:33:34;93791.97;;;1.70
64470;BMP280;50854;48.538;14.352;2022-09-23T05:34:34;93795.94;;;1.75
64470;BMP280;50854;48.538;14.352;2022-09-23T05:35:35;93793.41;;;1.80
64470;BMP280;50854;48.538;14.352;2022-09-23T05:36:35;93797.84;;;1.83
64470;BMP280;50854;48.538;14.352;2022-09-23T05:37:36;93795.50;;;2.00
64470;BMP280;50854;48.538;14.352;2022-09-23T05:38:37;93800.72;;;2.33
64470;BMP280;50854;48.538;14.352;2022-09-23T05:39:37;93803.06;;;2.55
64470;BMP280;50854;48.538;14.352;2022-09-23T05:40:38;93801.75;;;2.65
64470;BMP280;50854;48.538;14.352;2022-09-23T05:41:38;93807.31;;;2.77
64470;BMP280;50854;48.538;14.352;2022-09-23T05:42:40;93810.63;;;3.01
64470;BMP280;50854;48.538;14.352;2022-09-23T05:43:41;93811.88;;;3.35
64470;BMP280;50854;48.538;14.352;2022-09-23T05:44:41;93806.28;;;3.54
64470;BMP280;50854;48.538;14.352;2022-09-23T05:45:42;93810.41;;;3.69
64470;BMP280;50854;48.538;14.352;2022-09-23T05:46:42;93805.47;;;3.83
64470;BMP280;50854;48.538;14.352;2022-09-23T05:47:42;93809.97;;;4.12
64470;BMP280;50854;48.538;14.352;2022-09-23T05:48:43;93819.94;;;4.57
64470;BMP280;50854;48.538;14.352;2022-09-23T05:49:46;93815.78;;;5.08
64470;BMP280;50854;48.538;14.352;2022-09-23T05:50:50;93828.53;;;5.62
64470;BMP280;50854;48.538;14.352;2022-09-23T05:51:51;93821.78;;;6.26
64470;BMP280;50854;48.538;14.352;2022-09-23T05:52:51;93816.97;;;6.64
64470;BMP280;50854;48.538;14.352;2022-09-23T05:53:52;93823.06;;;7.03
64470;BMP280;50854;48.538;14.352;2022-09-23T05:54:52;93823.56;;;7.41
64470;BMP280;50854;48.538;14.352;2022-09-23T05:55:53;93825.00;;;7.53
64470;BMP280;50854;48.538;14.352;2022-09-23T05:56:53;93824.88;;;7.98
64470;BMP280;50854;48.538;14.352;2022-09-23T05:57:53;93828.19;;;8.21
64470;BMP280;50854;48.538;14.352;2022-09-23T05:58:54;93830.31;;;8.34
64470;BMP280;50854;48.538;14.352;2022-09-23T05:59:55;93836.50;;;8.64
64470;BMP280;50854;48.538;14.352;2022-09-23T06:00:55;93832.00;;;8.78
64470;BMP280;50854;48.538;14.352;2022-09-23T06:01:55;93835.53;;;8.97
64470;BMP280;50854;48.538;14.352;2022-09-23T06:02:56;93829.81;;;9.06
64470;BMP280;50854;48.538;14.352;2022-09-23T06:03:56;93830.78;;;9.09
64470;BMP280;50854;48.538;14.352;2022-09-23T06:04:57;93829.53;;;9.40
64470;BMP280;50854;48.538;14.352;2022-09-23T06:05:57;93841.47;;;9.50
64470;BMP280;50854;48.538;14.352;2022-09-23T06:06:57;93835.38;;;9.44
64470;BMP280;50854;48.538;14.352;2022-09-23T06:07:58;93835.59;;;9.70
64470;BMP280;50854;48.538;14.352;2022-09-23T06:08:58;93833.25;;;9.80
64470;BMP280;50854;48.538;14.352;2022-09-23T06:09:59;93840.53;;;9.91
64470;BMP280;50854;48.538;14.352;2022-09-23T06:11:02;93839.44;;;10.18
64470;BMP280;50854;48.538;14.352;2022-09-23T06:12:06;93836.94;;;10.39
64470;BMP280;50854;48.538;14.352;2022-09-23T06:13:06;93831.78;;;10.22
64470;BMP280;50854;48.538;14.352;2022-09-23T06:14:08;93843.09;;;10.02
64470;BMP280;50854;48.538;14.352;2022-09-23T06:15:10;93841.19;;;9.97
64470;BMP280;50854;48.538;14.352;2022-09-23T06:16:12;93845.28;;;9.60
64470;BMP280;50854;48.538;14.352;2022-09-23T06:17:12;93840.22;;;9.94
64470;BMP280;50854;48.538;14.352;2022-09-23T06:18:13;93838.81;;;10.12
64470;BMP280;50854;48.538;14.352;2022-09-23T06:19:13;93844.75;;;10.61
64470;BMP280;50854;48.538;14.352;2022-09-23T06:20:13;93847.94;;;10.79
64470;BMP280;50854;48.538;14.352;2022-09-23T06:21:14;93840.81;;;10.63
64470;BMP280;50854;48.538;14.352;2022-09-23T06:22:15;93813.72;;;10.49
64470;BMP280;50854;48.538;14.352;2022-09-23T06:23:16;93805.00;;;10.88
64470;BMP280;50854;48.538;14.352;2022-09-23T06:24:17;93795.84;;;11.50
64470;BMP280;50854;48.538;14.352;2022-09-23T06:25:17;93796.47;;;11.69
64470;BMP280;50854;48.538;14.352;2022-09-23T06:26:18;93800.19;;;11.79
64470;BMP280;50854;48.538;14.352;2022-09-23T06:27:18;93803.84;;;11.69
64470;BMP280;50854;48.538;14.352;2022-09-23T06:28:19;93800.19;;;11.79
64470;BMP280;50854;48.538;14.352;2022-09-23T06:29:19;93797.25;;;12.25
64470;BMP280;50854;48.538;14.352;2022-09-23T06:30:20;93770.00;;;12.43
64470;BMP280;50854;48.538;14.352;2022-09-23T06:31:20;93776.16;;;12.44
64470;BMP280;50854;48.538;14.352;2022-09-23T06:32:20;93799.53;;;12.55
64470;BMP280;50854;48.538;14.352;2022-09-23T06:33:22;93797.41;;;12.40
64470;BMP280;50854;48.538;14.352;2022-09-23T06:34:22;93785.63;;;12.37
64470;BMP280;50854;48.538;14.352;2022-09-23T06:35:25;93784.97;;;12.86
64470;BMP280;50854;48.538;14.352;2022-09-23T06:36:26;93805.97;;;12.44
64470;BMP280;50854;48.538;14.352;2022-09-23T06:37:26;93797.56;;;12.55
64470;BMP280;50854;48.538;14.352;2022-09-23T06:38:27;93786.22;;;13.06
64470;BMP280;50854;48.538;14.352;2022-09-23T06:39:27;93787.88;;;13.38
64470;BMP280;50854;48.538;14.352;2022-09-23T06:40:29;93801.63;;;12.83
64470;BMP280;50854;48.538;14.352;2022-09-23T06:41:30;93779.47;;;13.28
64470;BMP280;50854;48.538;14.352;2022-09-23T06:42:30;93774.03;;;13.56
64470;BMP280;50854;48.538;14.352;2022-09-23T06:43:30;93796.00;;;13.38
64470;BMP280;50854;48.538;14.352;2022-09-23T06:44:30;93782.13;;;13.49
64470;BMP280;50854;48.538;14.352;2022-09-23T06:45:31;93799.22;;;14.16
64470;BMP280;50854;48.538;14.352;2022-09-23T06:46:31;93766.84;;;14.41
64470;BMP280;50854;48.538;14.352;2022-09-23T06:47:31;93766.13;;;14.78
64470;BMP280;50854;48.538;14.352;2022-09-23T06:48:31;93745.47;;;15.46
64470;BMP280;50854;48.538;14.352;2022-09-23T06:49:35;93751.28;;;15.82
64470;BMP280;50854;48.538;14.352;2022-09-23T06:50:35;93740.69;;;15.94
64470;BMP280;50854;48.538;14.352;2022-09-23T06:51:36;93748.03;;;15.84
64470;BMP280;50854;48.538;14.352;2022-09-23T06:52:36;93748.03;;;15.84
64470;BMP280;50854;48.538;14.352;2022-09-23T06:53:36;93740.59;;;16.09